Time;durP1;ratioP1;P1;durP2;ratioP2;P2;SDS_P1;SDS_P2;PMS_P1;PMS_P2;Temp;Humidity;BMP_temperature;BMP_pressure;BME280_temperature;BME280_humidity;BME280_pressure;Samples;Min_cycle;Max_cycle;Signal;HPM_P1;HPM_P2
2022/05/04 00:01:37;;;;;;;59.07;3.00;;;;;;;;;;5081378;28;20832;-77
2022/05/04 00:04:06;;;;;;;59.47;3.60;;;;;;;;;;5073779;28;20487;-77
2022/05/04 00:06:33;;;;;;;59.20;3.10;;;;;;;;;;5074321;28;20879;-77
2022/05/04 00:09:00;;;;;;;59.30;3.43;;;;;;;;;;5073691;28;20455;-77
2022/05/04 00:11:27;;;;;;;58.57;2.60;;;;;;;;;;5074048;28;20466;-77
2022/05/04 00:13:56;;;;;;;58.83;2.70;;;;;;;;;;5074026;28;20451;-78
2022/05/04 00:16:23;;;;;;;58.83;2.73;;;;;;;;;;5073811;28;20474;-77
2022/05/04 00:18:50;;;;;;;59.27;3.43;;;;;;;;;;5072673;28;20461;-77
2022/05/04 00:21:17;;;;;;;58.70;2.70;;;;;;;;;;5073500;28;20538;-78
2022/05/04 00:23:44;;;;;;;58.77;2.70;;;;;;;;;;5073704;28;20485;-77
2022/05/04 00:26:12;;;;;;;59.40;3.20;;;;;;;;;;5073886;28;20537;-77
2022/05/04 00:28:39;;;;;;;58.70;2.87;;;;;;;;;;5073245;28;20892;-77
2022/05/04 00:31:07;;;;;;;61.10;4.17;;;;;;;;;;5072585;28;21071;-77
2022/05/04 00:33:34;;;;;;;59.10;3.40;;;;;;;;;;5078512;28;20478;-77
2022/05/04 00:36:02;;;;;;;58.93;3.30;;;;;;;;;;5093190;28;20537;-77
2022/05/04 00:38:29;;;;;;;59.10;3.90;;;;;;;;;;5093050;28;20529;-77
2022/05/04 00:40:56;;;;;;;63.13;4.10;;;;;;;;;;5093887;28;20469;-77
2022/05/04 00:43:24;;;;;;;58.80;2.70;;;;;;;;;;5093540;28;20536;-77
2022/05/04 00:45:51;;;;;;;58.93;2.83;;;;;;;;;;5093442;28;20450;-77
2022/05/04 00:48:20;;;;;;;58.67;2.73;;;;;;;;;;5092752;28;20457;-77
2022/05/04 00:50:48;;;;;;;58.90;2.87;;;;;;;;;;5093620;28;20568;-77
2022/05/04 00:53:16;;;;;;;58.77;2.80;;;;;;;;;;5093735;28;20529;-77
2022/05/04 00:55:43;;;;;;;58.93;3.10;;;;;;;;;;5093932;28;20813;-78
2022/05/04 01:00:55;;;;;;;58.90;2.70;;;;;;;;;;5093804;28;20818;-77
2022/05/04 01:03:23;;;;;;;58.87;3.00;;;;;;;;;;5092488;28;20458;-77
2022/05/04 01:05:50;;;;;;;58.83;2.80;;;;;;;;;;5089680;28;20541;-77
2022/05/04 01:08:18;;;;;;;58.93;2.90;;;;;;;;;;5092682;28;20537;-77
2022/05/04 01:10:46;;;;;;;65.17;4.30;;;;;;;;;;5093594;28;20488;-77
2022/05/04 01:13:13;;;;;;;59.03;3.00;;;;;;;;;;5093537;28;20529;-78
2022/05/04 01:15:40;;;;;;;59.47;3.90;;;;;;;;;;5093484;28;20896;-78
2022/05/04 01:18:07;;;;;;;58.77;2.90;;;;;;;;;;5092540;28;20879;-77
2022/05/04 01:20:36;;;;;;;59.10;3.23;;;;;;;;;;5092791;28;20550;-77
2022/05/04 01:23:04;;;;;;;58.67;2.70;;;;;;;;;;5092659;28;20540;-78
2022/05/04 01:25:31;;;;;;;58.77;2.90;;;;;;;;;;5092919;28;20848;-77
2022/05/04 01:28:00;;;;;;;58.83;2.80;;;;;;;;;;5091697;28;20974;-77
2022/05/04 01:30:27;;;;;;;58.87;2.70;;;;;;;;;;5092395;28;20986;-78
2022/05/04 01:32:54;;;;;;;58.77;2.70;;;;;;;;;;5092459;28;20544;-77
2022/05/04 01:35:21;;;;;;;58.73;2.90;;;;;;;;;;5091455;28;20532;-77
2022/05/04 01:37:48;;;;;;;58.87;2.90;;;;;;;;;;5088500;28;20465;-77
2022/05/04 01:40:17;;;;;;;58.87;3.10;;;;;;;;;;5092834;28;20505;-77
2022/05/04 01:42:44;;;;;;;58.73;3.17;;;;;;;;;;5088945;28;20458;-77
2022/05/04 01:45:12;;;;;;;58.67;2.80;;;;;;;;;;5092783;28;20565;-77
2022/05/04 01:47:40;;;;;;;58.97;3.10;;;;;;;;;;5091595;28;20519;-77
2022/05/04 01:50:07;;;;;;;58.67;2.70;;;;;;;;;;5092707;28;20513;-77
2022/05/04 01:52:35;;;;;;;58.97;3.50;;;;;;;;;;5092745;28;20490;-77
2022/05/04 01:55:02;;;;;;;58.90;2.70;;;;;;;;;;5092629;28;20521;-77
2022/05/04 01:57:30;;;;;;;58.93;3.30;;;;;;;;;;5091725;28;20526;-77
2022/05/04 01:59:57;;;;;;;58.90;3.37;;;;;;;;;;5092125;28;20501;-77
2022/05/04 02:02:25;;;;;;;58.50;2.70;;;;;;;;;;5092533;28;20512;-77
2022/05/04 02:04:52;;;;;;;59.50;3.10;;;;;;;;;;5092609;28;20486;-77
2022/05/04 02:07:19;;;;;;;60.23;3.77;;;;;;;;;;5091776;28;20459;-77
2022/05/04 02:09:47;;;;;;;58.83;3.17;;;;;;;;;;5082345;28;20471;-76
2022/05/04 02:12:14;;;;;;;58.63;2.60;;;;;;;;;;5073080;28;20459;-77
2022/05/04 02:14:42;;;;;;;58.53;2.70;;;;;;;;;;5071853;28;20445;-77
2022/05/04 02:17:09;;;;;;;59.00;3.40;;;;;;;;;;5071980;28;20453;-77
2022/05/04 02:19:36;;;;;;;58.77;2.60;;;;;;;;;;5071696;28;20840;-77
2022/05/04 02:22:04;;;;;;;58.50;2.77;;;;;;;;;;5072080;28;20451;-77
2022/05/04 02:24:31;;;;;;;58.77;2.80;;;;;;;;;;5076576;28;20569;-77
2022/05/04 02:26:58;;;;;;;58.63;2.60;;;;;;;;;;5072337;28;20837;-77
2022/05/04 02:29:25;;;;;;;58.77;2.70;;;;;;;;;;5071536;28;20475;-77
2022/05/04 02:31:56;;;;;;;59.30;2.97;;;;;;;;;;5072337;28;20452;-77
2022/05/04 02:34:23;;;;;;;58.67;2.80;;;;;;;;;;5071679;28;20835;-77
2022/05/04 02:39:34;;;;;;;59.30;3.00;;;;;;;;;;5070301;28;20458;-78
2022/05/04 02:42:02;;;;;;;58.67;2.53;;;;;;;;;;5076195;28;20887;-77
2022/05/04 02:44:29;;;;;;;58.57;2.60;;;;;;;;;;5091588;28;20852;-78
2022/05/04 02:46:57;;;;;;;59.27;3.60;;;;;;;;;;5091610;28;20514;-77
2022/05/04 02:49:24;;;;;;;58.67;3.00;;;;;;;;;;5090896;28;20470;-77
2022/05/04 02:51:52;;;;;;;59.40;4.27;;;;;;;;;;5092325;28;20450;-77
2022/05/04 02:54:19;;;;;;;58.73;2.80;;;;;;;;;;5092364;28;20496;-77
2022/05/04 02:56:46;;;;;;;58.77;2.77;;;;;;;;;;5092539;28;20445;-78
2022/05/04 02:59:13;;;;;;;58.77;2.97;;;;;;;;;;5095599;28;20477;-77
2022/05/04 03:04:34;;;;;;;58.67;2.83;;;;;;;;;;5095822;28;20469;-77
2022/05/04 03:07:01;;;;;;;59.00;3.57;;;;;;;;;;5096319;28;20947;-78
2022/05/04 03:09:28;;;;;;;58.93;3.50;;;;;;;;;;5095413;28;20478;-78
2022/05/04 03:11:55;;;;;;;58.60;2.53;;;;;;;;;;5095722;28;20482;-78
2022/05/04 03:14:23;;;;;;;58.77;3.17;;;;;;;;;;5093490;28;20529;-77
2022/05/04 03:16:51;;;;;;;59.30;3.63;;;;;;;;;;5096286;28;20519;-77
2022/05/04 03:19:18;;;;;;;58.57;2.60;;;;;;;;;;5094885;28;20474;-78
2022/05/04 03:21:47;;;;;;;59.13;3.40;;;;;;;;;;5096025;28;20460;-78
2022/05/04 03:24:14;;;;;;;59.00;2.87;;;;;;;;;;5095731;28;20461;-77
2022/05/04 03:26:41;;;;;;;59.17;4.00;;;;;;;;;;5096157;28;20950;-78
2022/05/04 03:29:08;;;;;;;58.63;2.90;;;;;;;;;;5095310;28;21177;-77
2022/05/04 03:31:36;;;;;;;58.77;2.80;;;;;;;;;;5095433;28;20447;-77
2022/05/04 03:34:03;;;;;;;59.03;3.10;;;;;;;;;;5095553;28;20541;-78
2022/05/04 03:36:30;;;;;;;59.87;3.10;;;;;;;;;;5095576;28;20493;-77
2022/05/04 03:39:01;;;;;;;58.67;2.80;;;;;;;;;;5095199;28;20813;-78
2022/05/04 03:41:28;;;;;;;58.90;3.33;;;;;;;;;;5096050;28;20545;-77
2022/05/04 03:43:55;;;;;;;58.90;3.33;;;;;;;;;;5095309;28;20474;-78
2022/05/04 03:46:23;;;;;;;59.30;3.77;;;;;;;;;;5093837;28;20478;-77
2022/05/04 03:48:52;;;;;;;58.57;3.00;;;;;;;;;;5094907;28;20446;-77
2022/05/04 03:51:20;;;;;;;58.77;3.00;;;;;;;;;;5095636;28;20980;-78
2022/05/04 03:53:47;;;;;;;58.90;2.77;;;;;;;;;;5096203;28;20473;-77
2022/05/04 03:56:16;;;;;;;58.70;3.07;;;;;;;;;;5096202;28;20518;-78
2022/05/04 03:58:43;;;;;;;59.60;4.40;;;;;;;;;;5095406;28;20449;-77
2022/05/04 04:01:11;;;;;;;58.77;2.70;;;;;;;;;;5095895;28;20489;-77
2022/05/04 04:03:38;;;;;;;58.60;2.60;;;;;;;;;;5095047;28;20825;-77
2022/05/04 04:06:05;;;;;;;58.67;2.60;;;;;;;;;;5094568;28;20491;-77
2022/05/04 04:08:33;;;;;;;58.47;2.90;;;;;;;;;;5093439;28;20885;-77
2022/05/04 04:11:00;;;;;;;58.87;3.20;;;;;;;;;;5093478;28;20502;-77
2022/05/04 04:13:29;;;;;;;58.87;3.00;;;;;;;;;;5093899;28;20450;-77
2022/05/04 04:15:56;;;;;;;58.77;3.20;;;;;;;;;;5094054;28;20543;-77
2022/05/04 04:18:24;;;;;;;58.77;3.23;;;;;;;;;;5093245;28;20453;-78
2022/05/04 04:23:36;;;;;;;58.93;3.23;;;;;;;;;;5094889;28;21017;-77
2022/05/04 04:26:04;;;;;;;59.10;3.80;;;;;;;;;;5095043;28;20486;-77
2022/05/04 04:28:33;;;;;;;58.57;2.70;;;;;;;;;;5094176;28;20456;-77
2022/05/04 04:31:00;;;;;;;59.50;4.37;;;;;;;;;;5094843;28;20469;-77
2022/05/04 04:33:29;;;;;;;58.90;3.10;;;;;;;;;;5095010;28;20455;-77
2022/05/04 04:35:56;;;;;;;58.63;3.30;;;;;;;;;;5094618;28;20454;-77
2022/05/04 04:41:27;;;;;;;59.57;3.70;;;;;;;;;;5091729;28;20390;-77
2022/05/04 04:43:55;;;;;;;59.17;3.43;;;;;;;;;;5094700;28;20534;-77
2022/05/04 04:46:22;;;;;;;59.20;3.47;;;;;;;;;;5094624;28;20479;-77
2022/05/04 04:48:50;;;;;;;58.87;3.13;;;;;;;;;;5093870;28;20451;-76
2022/05/04 04:51:17;;;;;;;58.37;2.53;;;;;;;;;;5094530;28;20468;-77
2022/05/04 04:53:44;;;;;;;58.63;2.80;;;;;;;;;;5095594;28;20538;-77
2022/05/04 04:56:11;;;;;;;58.37;2.67;;;;;;;;;;5094590;28;20788;-78
2022/05/04 04:58:38;;;;;;;59.00;3.37;;;;;;;;;;5093220;28;20537;-77
2022/05/04 05:01:07;;;;;;;58.67;3.00;;;;;;;;;;5094261;28;20466;-77
2022/05/04 05:03:34;;;;;;;58.60;2.90;;;;;;;;;;5098836;28;20540;-78
2022/05/04 05:06:01;;;;;;;58.60;2.90;;;;;;;;;;5094397;28;20488;-77
2022/05/04 05:08:28;;;;;;;58.47;2.67;;;;;;;;;;5094026;28;20534;-77
2022/05/04 05:10:55;;;;;;;58.57;2.87;;;;;;;;;;5094530;28;20541;-77
2022/05/04 05:13:23;;;;;;;61.77;3.83;;;;;;;;;;5094536;28;20533;-77
2022/05/04 05:16:07;;;;;;;58.67;3.33;;;;;;;;;;5095049;28;20537;-77
2022/05/04 05:18:35;;;;;;;59.37;3.30;;;;;;;;;;5092625;28;20453;-77
2022/05/04 05:21:03;;;;;;;58.90;3.20;;;;;;;;;;5092566;28;20509;-78
2022/05/04 05:23:30;;;;;;;59.00;3.23;;;;;;;;;;5093158;28;20533;-77
2022/05/04 05:25:57;;;;;;;58.97;3.53;;;;;;;;;;5093895;28;21078;-77
2022/05/04 05:28:24;;;;;;;60.90;3.80;;;;;;;;;;5092542;28;21000;-77
2022/05/04 05:30:51;;;;;;;59.10;2.90;;;;;;;;;;5093175;28;20489;-77
2022/05/04 05:33:18;;;;;;;58.87;3.00;;;;;;;;;;5093039;28;20446;-77
2022/05/04 05:35:47;;;;;;;69.40;4.60;;;;;;;;;;5093996;28;20484;-78
2022/05/04 05:38:14;;;;;;;58.57;2.97;;;;;;;;;;5093365;28;20728;-78
2022/05/04 05:40:41;;;;;;;58.43;2.70;;;;;;;;;;5093546;28;20476;-78
2022/05/04 05:43:09;;;;;;;58.77;3.47;;;;;;;;;;5093902;28;20545;-78
2022/05/04 05:45:36;;;;;;;58.83;3.40;;;;;;;;;;5094110;28;20474;-78
2022/05/04 05:48:03;;;;;;;58.57;3.30;;;;;;;;;;5093423;28;20442;-78
2022/05/04 05:50:33;;;;;;;58.53;3.40;;;;;;;;;;5093636;28;20538;-77
2022/05/04 05:53:02;;;;;;;59.67;3.30;;;;;;;;;;5093660;28;20464;-78
2022/05/04 05:55:29;;;;;;;58.47;3.03;;;;;;;;;;5094066;28;20531;-78
2022/05/04 05:57:56;;;;;;;58.87;3.43;;;;;;;;;;5093560;28;20450;-78
2022/05/04 06:00:24;;;;;;;58.90;3.60;;;;;;;;;;5093697;28;20553;-78
2022/05/04 06:02:51;;;;;;;59.07;3.57;;;;;;;;;;5093982;28;20493;-78
2022/05/04 06:05:18;;;;;;;60.30;4.23;;;;;;;;;;5093070;28;20481;-78
2022/05/04 06:07:45;;;;;;;59.40;3.77;;;;;;;;;;5092960;28;20534;-78
2022/05/04 06:10:14;;;;;;;59.10;3.30;;;;;;;;;;5093931;28;20473;-78
2022/05/04 06:12:43;;;;;;;59.30;3.87;;;;;;;;;;5093823;28;20457;-78
2022/05/04 06:15:11;;;;;;;58.53;2.70;;;;;;;;;;5093889;28;20438;-78
2022/05/04 06:17:39;;;;;;;59.07;3.80;;;;;;;;;;5093431;28;21163;-78
2022/05/04 06:20:07;;;;;;;61.77;4.83;;;;;;;;;;5093897;28;20553;-78
2022/05/04 06:22:34;;;;;;;59.47;4.03;;;;;;;;;;5094065;28;20492;-78
2022/05/04 06:25:01;;;;;;;58.60;3.33;;;;;;;;;;5094187;28;20447;-78
2022/05/04 06:27:30;;;;;;;60.07;4.20;;;;;;;;;;5092867;28;20534;-78
2022/05/04 06:35:28;;;;;;;61.37;4.63;;;;;;;;;;5097835;28;20429;-78
2022/05/04 06:37:55;;;;;;;58.63;2.77;;;;;;;;;;5096573;28;20497;-78
2022/05/04 06:40:23;;;;;;;59.60;4.20;;;;;;;;;;5097203;28;20474;-77
2022/05/04 06:42:51;;;;;;;58.70;3.20;;;;;;;;;;5097603;28;20455;-76
2022/05/04 06:45:18;;;;;;;59.33;3.60;;;;;;;;;;5096942;28;20513;-77
2022/05/04 06:47:45;;;;;;;58.87;3.37;;;;;;;;;;5096815;28;20451;-77
2022/05/04 06:50:13;;;;;;;58.57;3.20;;;;;;;;;;5096832;28;20565;-77
2022/05/04 06:52:40;;;;;;;65.70;3.90;;;;;;;;;;5096635;28;20541;-77
2022/05/04 06:55:08;;;;;;;58.47;3.00;;;;;;;;;;5096770;28;20455;-77
2022/05/04 06:57:36;;;;;;;58.33;2.93;;;;;;;;;;5096162;28;20539;-77
2022/05/04 07:00:05;;;;;;;58.63;3.27;;;;;;;;;;5096677;28;20909;-77
2022/05/04 07:02:33;;;;;;;59.07;3.20;;;;;;;;;;5096493;28;20443;-77
2022/05/04 07:05:00;;;;;;;58.83;3.60;;;;;;;;;;5096738;28;20503;-77
2022/05/04 07:07:27;;;;;;;59.40;4.30;;;;;;;;;;5096001;28;20486;-76
2022/05/04 07:09:55;;;;;;;58.80;2.70;;;;;;;;;;5095999;28;20471;-77
2022/05/04 07:12:22;;;;;;;58.40;3.00;;;;;;;;;;5096716;28;20446;-77
2022/05/04 07:14:51;;;;;;;58.90;3.03;;;;;;;;;;5096834;28;20537;-77
2022/05/04 07:17:20;;;;;;;59.07;3.23;;;;;;;;;;5095978;28;20451;-77
2022/05/04 07:19:47;;;;;;;62.30;5.10;;;;;;;;;;5096306;28;20472;-77
2022/05/04 07:22:14;;;;;;;59.00;3.37;;;;;;;;;;5095937;28;20452;-77
2022/05/04 07:24:42;;;;;;;58.50;2.80;;;;;;;;;;5096205;28;20539;-77
2022/05/04 07:27:09;;;;;;;58.80;3.10;;;;;;;;;;5095553;28;20484;-78
2022/05/04 07:29:36;;;;;;;58.90;3.47;;;;;;;;;;5095448;28;20503;-78
2022/05/04 07:32:04;;;;;;;59.93;4.10;;;;;;;;;;5104560;28;21003;-78
2022/05/04 07:34:32;;;;;;;58.70;3.17;;;;;;;;;;5095806;28;20495;-78
2022/05/04 07:37:00;;;;;;;60.30;4.83;;;;;;;;;;5095750;28;20476;-77
2022/05/04 07:42:24;;;;;;;59.00;3.47;;;;;;;;;;5093826;28;20429;-77
2022/05/04 07:44:51;;;;;;;59.20;3.63;;;;;;;;;;5094917;28;20447;-77
2022/05/04 07:47:19;;;;;;;60.10;5.30;;;;;;;;;;5094125;28;20548;-76
2022/05/04 07:49:49;;;;;;;59.10;3.77;;;;;;;;;;5094484;28;21016;-76
2022/05/04 07:52:16;;;;;;;59.07;3.80;;;;;;;;;;5095469;28;20449;-76
2022/05/04 07:54:43;;;;;;;59.00;3.83;;;;;;;;;;5096310;28;20449;-77
2022/05/04 07:57:10;;;;;;;59.87;4.63;;;;;;;;;;5095376;28;20816;-77
2022/05/04 07:59:37;;;;;;;59.20;3.57;;;;;;;;;;5095473;28;20841;-77
2022/05/04 08:04:51;;;;;;;59.00;3.90;;;;;;;;;;5095315;28;20428;-77
2022/05/04 08:07:18;;;;;;;59.50;4.17;;;;;;;;;;5094356;28;20486;-76
2022/05/04 08:09:46;;;;;;;60.87;5.10;;;;;;;;;;5094964;28;20665;-76
2022/05/04 08:12:13;;;;;;;59.53;4.43;;;;;;;;;;5095466;28;20536;-77
2022/05/04 08:14:40;;;;;;;58.57;3.60;;;;;;;;;;5094985;28;20464;-77
2022/05/04 08:17:07;;;;;;;60.50;4.50;;;;;;;;;;5094546;28;21011;-76
2022/05/04 08:19:35;;;;;;;60.60;5.03;;;;;;;;;;5095345;28;20477;-77
2022/05/04 08:22:04;;;;;;;59.10;3.30;;;;;;;;;;5094808;28;20445;-77
2022/05/04 08:24:31;;;;;;;60.90;5.50;;;;;;;;;;5094868;28;20536;-77
2022/05/04 08:26:58;;;;;;;59.37;3.87;;;;;;;;;;5094788;28;21021;-77
2022/05/04 08:29:25;;;;;;;59.60;4.70;;;;;;;;;;5093904;28;20515;-77
2022/05/04 08:31:52;;;;;;;60.97;4.23;;;;;;;;;;5094921;28;20472;-77
2022/05/04 08:34:19;;;;;;;59.40;3.83;;;;;;;;;;5094513;28;20533;-76
2022/05/04 08:36:46;;;;;;;59.57;3.87;;;;;;;;;;5094478;28;20496;-77
2022/05/04 08:39:15;;;;;;;59.00;3.33;;;;;;;;;;5093631;28;20556;-77
2022/05/04 08:41:43;;;;;;;59.00;4.60;;;;;;;;;;5094009;28;20537;-77
2022/05/04 08:44:11;;;;;;;59.40;4.23;;;;;;;;;;5094043;28;20959;-77
2022/05/04 08:46:39;;;;;;;61.03;4.63;;;;;;;;;;5093734;28;20528;-77
2022/05/04 08:49:06;;;;;;;61.93;4.47;;;;;;;;;;5093022;28;20523;-77
2022/05/04 08:51:35;;;;;;;60.10;5.30;;;;;;;;;;5093475;28;20457;-77
2022/05/04 08:54:02;;;;;;;58.90;3.70;;;;;;;;;;5093715;28;20454;-77
2022/05/04 08:56:30;;;;;;;59.83;4.27;;;;;;;;;;5092930;28;20546;-77
2022/05/04 08:58:58;;;;;;;59.40;4.73;;;;;;;;;;5092856;28;20486;-76
2022/05/04 09:01:25;;;;;;;61.00;5.27;;;;;;;;;;5093722;28;20526;-76
2022/05/04 09:03:53;;;;;;;59.03;4.33;;;;;;;;;;5093614;28;20542;-76
2022/05/04 09:06:27;;;;;;;60.83;4.90;;;;;;;;;;5092937;28;20883;-76
2022/05/04 09:08:55;;;;;;;59.70;4.10;;;;;;;;;;5092769;28;20450;-76
2022/05/04 09:11:23;;;;;;;60.63;4.73;;;;;;;;;;5093358;28;20535;-76
2022/05/04 09:13:51;;;;;;;60.60;5.60;;;;;;;;;;5093199;28;20451;-76
2022/05/04 09:16:25;;;;;;;61.20;4.60;;;;;;;;;;5093327;28;20450;-76
2022/05/04 09:18:53;;;;;;;60.00;5.23;;;;;;;;;;5092329;28;20538;-76
2022/05/04 09:21:22;;;;;;;60.27;5.30;;;;;;;;;;5092884;28;20474;-76
2022/05/04 09:23:52;;;;;;;59.73;4.30;;;;;;;;;;5093038;28;20456;-77
2022/05/04 09:26:20;;;;;;;60.20;4.57;;;;;;;;;;5093291;28;20563;-77
2022/05/04 09:28:50;;;;;;;62.50;5.13;;;;;;;;;;5106795;28;20451;-76
2022/05/04 09:31:20;;;;;;;59.77;4.23;;;;;;;;;;5106379;28;20447;-76
2022/05/04 09:33:53;;;;;;;58.97;3.93;;;;;;;;;;5092719;28;20453;-77
2022/05/04 09:36:31;;;;;;;61.70;6.40;;;;;;;;;;5093228;28;20533;-76
2022/05/04 09:47:20;;;;;;;59.97;5.10;;;;;;;;;;5080775;28;20483;-77
2022/05/04 09:49:48;;;;;;;60.83;4.93;;;;;;;;;;5091383;28;20475;-74
2022/05/04 09:52:16;;;;;;;59.43;4.20;;;;;;;;;;5088892;28;20455;-77
2022/05/04 09:54:43;;;;;;;59.77;4.83;;;;;;;;;;5092414;28;20449;-75
2022/05/04 09:57:10;;;;;;;61.70;5.53;;;;;;;;;;5092224;28;20947;-75
2022/05/04 09:59:37;;;;;;;59.97;4.97;;;;;;;;;;5092082;28;20556;-75
2022/05/04 10:02:09;;;;;;;60.80;5.43;;;;;;;;;;5092363;28;20453;-75
2022/05/04 10:04:37;;;;;;;61.27;6.07;;;;;;;;;;5092041;28;20461;-75
2022/05/04 10:07:05;;;;;;;60.10;4.30;;;;;;;;;;5090902;28;20513;-76
2022/05/04 10:09:32;;;;;;;75.03;6.20;;;;;;;;;;5091453;28;20510;-76
2022/05/04 10:12:00;;;;;;;61.90;6.30;;;;;;;;;;5092227;28;20456;-74
2022/05/04 10:14:28;;;;;;;61.73;6.90;;;;;;;;;;5091855;28;20462;-73
2022/05/04 10:16:58;;;;;;;64.60;5.53;;;;;;;;;;5091991;28;20444;-78
2022/05/04 10:19:29;;;;;;;60.60;5.37;;;;;;;;;;5091174;28;20565;-76
2022/05/04 10:21:59;;;;;;;60.40;6.00;;;;;;;;;;5091910;28;20469;-76
2022/05/04 10:24:29;;;;;;;65.40;7.10;;;;;;;;;;5091883;28;20482;-75
2022/05/04 10:27:02;;;;;;;61.37;6.20;;;;;;;;;;5091809;28;21009;-76
2022/05/04 10:32:33;;;;;;;61.50;6.67;;;;;;;;;;5092052;28;20417;-75
2022/05/04 10:35:10;;;;;;;61.37;6.60;;;;;;;;;;5087908;28;20454;-75
2022/05/04 10:40:32;;;;;;;62.47;6.73;;;;;;;;;;5089369;28;20662;-75
2022/05/04 10:43:02;;;;;;;62.40;6.27;;;;;;;;;;5089227;28;20557;-75
2022/05/04 10:45:31;;;;;;;60.80;5.20;;;;;;;;;;5089458;28;20454;-75
2022/05/04 10:48:31;;;;;;;60.37;4.80;;;;;;;;;;5088670;28;20442;-76
2022/05/04 10:50:59;;;;;;;60.20;4.43;;;;;;;;;;5088887;28;20616;-76
2022/05/04 10:53:41;;;;;;;60.47;4.60;;;;;;;;;;5089153;28;20446;-75
2022/05/04 10:56:12;;;;;;;61.10;5.03;;;;;;;;;;5087125;28;20493;-75
2022/05/04 10:58:40;;;;;;;60.80;4.90;;;;;;;;;;5088318;28;20486;-76
2022/05/04 11:01:10;;;;;;;59.00;3.33;;;;;;;;;;5088829;28;20463;-76
2022/05/04 11:03:38;;;;;;;59.47;5.00;;;;;;;;;;5088622;28;20446;-75
2022/05/04 11:06:09;;;;;;;60.00;4.27;;;;;;;;;;5088245;28;20536;-76
2022/05/04 11:08:36;;;;;;;60.40;3.33;;;;;;;;;;5084961;28;20482;-75
2022/05/04 11:11:04;;;;;;;59.37;4.33;;;;;;;;;;5088728;28;20561;-75
2022/05/04 11:13:33;;;;;;;63.40;6.03;;;;;;;;;;5088635;28;20453;-75
2022/05/04 11:16:01;;;;;;;61.73;5.20;;;;;;;;;;5088392;28;20537;-75
2022/05/04 11:18:29;;;;;;;59.50;4.10;;;;;;;;;;5087983;28;20447;-75
2022/05/04 11:20:57;;;;;;;59.17;3.87;;;;;;;;;;5088628;28;20475;-75
2022/05/04 11:23:24;;;;;;;58.90;3.53;;;;;;;;;;5088382;28;20451;-75
2022/05/04 11:25:52;;;;;;;60.27;5.07;;;;;;;;;;5088503;28;20512;-75
2022/05/04 11:28:20;;;;;;;58.23;3.07;;;;;;;;;;5087657;28;20570;-75
2022/05/04 11:30:48;;;;;;;59.50;4.00;;;;;;;;;;5088222;28;20941;-76
2022/05/04 11:33:16;;;;;;;59.27;3.80;;;;;;;;;;5091076;28;20549;-75
2022/05/04 11:35:43;;;;;;;59.40;3.93;;;;;;;;;;5088362;28;20483;-74
2022/05/04 11:38:17;;;;;;;59.10;3.90;;;;;;;;;;5087599;28;20481;-73
2022/05/04 11:40:45;;;;;;;59.20;4.00;;;;;;;;;;5088141;28;20476;-74
2022/05/04 11:43:22;;;;;;;59.00;4.07;;;;;;;;;;5088314;28;20514;-74
2022/05/04 11:45:51;;;;;;;60.10;4.30;;;;;;;;;;5088186;28;20454;-74
2022/05/04 11:48:19;;;;;;;58.80;3.77;;;;;;;;;;5087527;28;20531;-74
2022/05/04 11:50:46;;;;;;;59.87;4.30;;;;;;;;;;5080680;28;20469;-75
2022/05/04 11:53:14;;;;;;;64.60;4.70;;;;;;;;;;5074453;28;20448;-74
2022/05/04 11:55:41;;;;;;;60.30;4.80;;;;;;;;;;5074317;28;20962;-75
2022/05/04 11:58:10;;;;;;;61.50;4.80;;;;;;;;;;5074129;28;20534;-76
2022/05/04 12:00:37;;;;;;;62.30;4.53;;;;;;;;;;5074281;28;20494;-76
2022/05/04 12:03:06;;;;;;;58.87;3.77;;;;;;;;;;5074276;28;20825;-74
2022/05/04 12:05:34;;;;;;;59.53;4.17;;;;;;;;;;5074451;28;20452;-74
2022/05/04 12:08:01;;;;;;;59.00;4.07;;;;;;;;;;5073421;28;20531;-75
2022/05/04 12:10:28;;;;;;;58.33;2.97;;;;;;;;;;5073897;28;20473;-73
2022/05/04 12:12:56;;;;;;;60.07;3.30;;;;;;;;;;5074160;28;20457;-74
2022/05/04 12:15:24;;;;;;;58.80;3.37;;;;;;;;;;5073979;28;20640;-74
2022/05/04 12:17:51;;;;;;;59.37;3.57;;;;;;;;;;5073401;28;20509;-74
2022/05/04 12:20:21;;;;;;;60.00;3.97;;;;;;;;;;5073885;28;20489;-74
2022/05/04 12:22:48;;;;;;;60.13;3.33;;;;;;;;;;5073662;28;20447;-74
2022/05/04 12:25:15;;;;;;;58.40;3.10;;;;;;;;;;5074067;28;20447;-74
2022/05/04 12:27:45;;;;;;;58.70;3.20;;;;;;;;;;5073258;28;20529;-74
2022/05/04 12:33:09;;;;;;;58.20;2.70;;;;;;;;;;5072443;28;21111;-74
2022/05/04 12:35:38;;;;;;;58.57;3.00;;;;;;;;;;5072769;28;20529;-74
2022/05/04 12:38:06;;;;;;;59.90;3.37;;;;;;;;;;5071820;28;20534;-74
2022/05/04 12:40:34;;;;;;;58.57;2.80;;;;;;;;;;5072283;28;20575;-75
2022/05/04 12:43:03;;;;;;;59.30;3.33;;;;;;;;;;5072302;28;20478;-75
2022/05/04 12:45:31;;;;;;;58.43;3.50;;;;;;;;;;5072684;28;20835;-75
2022/05/04 12:47:59;;;;;;;58.80;3.30;;;;;;;;;;5072770;28;20452;-75
2022/05/04 12:50:28;;;;;;;58.57;2.93;;;;;;;;;;5073543;28;20467;-75
2022/05/04 12:52:58;;;;;;;58.70;3.13;;;;;;;;;;5073265;28;20981;-75
2022/05/04 12:58:06;;;;;;;61.47;3.30;;;;;;;;;;5072139;28;20438;-75
2022/05/04 13:00:34;;;;;;;58.10;3.07;;;;;;;;;;5073283;28;20942;-75
2022/05/04 13:03:01;;;;;;;58.63;3.60;;;;;;;;;;5072251;28;20479;-75
2022/05/04 13:05:28;;;;;;;58.50;3.33;;;;;;;;;;5073235;28;20830;-75
2022/05/04 13:07:55;;;;;;;58.60;3.60;;;;;;;;;;5072546;28;20875;-75
2022/05/04 13:10:29;;;;;;;58.83;3.23;;;;;;;;;;5072778;28;20891;-75
2022/05/04 13:12:56;;;;;;;58.40;3.30;;;;;;;;;;5073230;28;20825;-75
2022/05/04 13:15:23;;;;;;;59.40;4.27;;;;;;;;;;5069803;28;20491;-75
2022/05/04 13:17:51;;;;;;;59.60;3.97;;;;;;;;;;5072362;28;20460;-75
2022/05/04 13:20:19;;;;;;;59.97;4.37;;;;;;;;;;5072998;28;20491;-74
2022/05/04 13:22:46;;;;;;;59.40;3.40;;;;;;;;;;5072752;28;20825;-74
2022/05/04 13:25:15;;;;;;;60.47;4.93;;;;;;;;;;5072531;28;20530;-75
2022/05/04 13:27:44;;;;;;;59.40;3.70;;;;;;;;;;5072241;28;20455;-75
2022/05/04 13:30:13;;;;;;;60.67;4.23;;;;;;;;;;5072677;28;20491;-75
2022/05/04 13:32:40;;;;;;;59.70;3.30;;;;;;;;;;5072513;28;20829;-74
2022/05/04 13:35:08;;;;;;;58.97;4.00;;;;;;;;;;5072586;28;20451;-75
2022/05/04 13:37:35;;;;;;;60.07;3.70;;;;;;;;;;5072320;28;20482;-74
2022/05/04 13:40:02;;;;;;;58.40;3.07;;;;;;;;;;5072381;28;20514;-75
2022/05/04 13:42:30;;;;;;;59.60;3.63;;;;;;;;;;5072515;28;20440;-75
2022/05/04 13:44:59;;;;;;;59.37;3.20;;;;;;;;;;5072231;28;20817;-75
2022/05/04 13:47:26;;;;;;;61.07;3.90;;;;;;;;;;5068405;28;20509;-74
2022/05/04 13:49:54;;;;;;;58.97;2.83;;;;;;;;;;5072225;28;20556;-75
2022/05/04 13:55:08;;;;;;;58.50;3.60;;;;;;;;;;5072315;28;20800;-74
2022/05/04 13:57:35;;;;;;;58.67;3.20;;;;;;;;;;5071452;28;20887;-74
2022/05/04 14:00:04;;;;;;;58.70;3.27;;;;;;;;;;5072434;28;20544;-76
2022/05/04 14:02:31;;;;;;;59.00;3.47;;;;;;;;;;5071807;28;20487;-73
2022/05/04 14:04:58;;;;;;;60.17;3.83;;;;;;;;;;5072014;28;20483;-76
2022/05/04 14:07:26;;;;;;;58.80;3.90;;;;;;;;;;5071446;28;20530;-76
2022/05/04 14:09:53;;;;;;;60.43;3.70;;;;;;;;;;5072030;28;20477;-74
2022/05/04 14:12:20;;;;;;;60.57;4.47;;;;;;;;;;5071938;28;20443;-69
2022/05/04 14:15:02;;;;;;;58.77;3.47;;;;;;;;;;5071726;28;20444;-74
2022/05/04 14:17:31;;;;;;;64.47;4.10;;;;;;;;;;5070596;28;20512;-74
2022/05/04 14:19:59;;;;;;;58.90;3.43;;;;;;;;;;5068072;28;20529;-74
2022/05/04 14:22:26;;;;;;;60.27;4.23;;;;;;;;;;5071699;28;20483;-75
2022/05/04 14:24:53;;;;;;;63.97;4.10;;;;;;;;;;5071737;28;20538;-74
2022/05/04 14:27:20;;;;;;;59.93;3.60;;;;;;;;;;5071041;28;20592;-75
2022/05/04 14:29:47;;;;;;;58.83;3.77;;;;;;;;;;5071451;28;20547;-74
2022/05/04 14:32:14;;;;;;;59.40;4.07;;;;;;;;;;5071840;28;20525;-75
2022/05/04 14:34:43;;;;;;;59.40;3.70;;;;;;;;;;5071816;28;20452;-74
2022/05/04 14:37:10;;;;;;;59.80;3.80;;;;;;;;;;5071052;28;20536;-74
2022/05/04 14:39:37;;;;;;;59.50;3.63;;;;;;;;;;5071500;28;20487;-74
2022/05/04 14:42:05;;;;;;;59.60;3.83;;;;;;;;;;5071540;28;20950;-74
2022/05/04 14:44:32;;;;;;;58.47;3.10;;;;;;;;;;5071488;28;20451;-74
2022/05/04 14:46:59;;;;;;;60.40;3.57;;;;;;;;;;5071934;28;20458;-74
2022/05/04 14:49:28;;;;;;;60.13;3.30;;;;;;;;;;5069961;28;20489;-74
2022/05/04 14:51:56;;;;;;;59.40;3.63;;;;;;;;;;5068597;28;20508;-74
2022/05/04 14:54:24;;;;;;;59.37;3.37;;;;;;;;;;5071469;28;20534;-74
2022/05/04 14:56:51;;;;;;;59.40;3.47;;;;;;;;;;5071203;28;20446;-74
2022/05/04 14:59:18;;;;;;;62.17;4.07;;;;;;;;;;5070715;28;20482;-76
2022/05/04 15:01:46;;;;;;;60.20;3.90;;;;;;;;;;5071397;28;20991;-74
2022/05/04 15:06:59;;;;;;;58.43;3.20;;;;;;;;;;5071449;28;20422;-74
2022/05/04 15:09:26;;;;;;;58.67;3.23;;;;;;;;;;5070538;28;20466;-74
2022/05/04 15:11:53;;;;;;;58.10;2.67;;;;;;;;;;5071432;28;20554;-75
2022/05/04 15:14:21;;;;;;;59.07;3.70;;;;;;;;;;5071434;28;20455;-74
2022/05/04 15:16:48;;;;;;;58.50;2.73;;;;;;;;;;5071341;28;20453;-75
2022/05/04 15:19:15;;;;;;;58.43;3.00;;;;;;;;;;5070531;28;20463;-74
2022/05/04 15:21:42;;;;;;;58.97;3.97;;;;;;;;;;5070215;28;20486;-75
2022/05/04 15:24:11;;;;;;;59.10;3.43;;;;;;;;;;5069630;28;20455;-74
2022/05/04 15:26:38;;;;;;;59.00;3.50;;;;;;;;;;5073726;28;20982;-75